sensor_id;sensor_type;location;lat;lon;timestamp;P1;durP1;ratioP1;P2;durP2;ratioP2
74259;SDS011;62630;55.874;37.516;2022-08-19T00:02:23;10.70;;;4.82;;
74259;SDS011;62630;55.874;37.516;2022-08-19T00:04:49;9.05;;;4.95;;
74259;SDS011;62630;55.874;37.516;2022-08-19T00:07:17;13.98;;;4.40;;
74259;SDS011;62630;55.874;37.516;2022-08-19T00:09:44;7.72;;;4.32;;
74259;SDS011;62630;55.874;37.516;2022-08-19T00:12:10;9.88;;;4.82;;
74259;SDS011;62630;55.874;37.516;2022-08-19T00:14:36;8.82;;;4.75;;
74259;SDS011;62630;55.874;37.516;2022-08-19T00:17:02;6.93;;;4.63;;
74259;SDS011;62630;55.874;37.516;2022-08-19T00:19:28;10.43;;;5.05;;
74259;SDS011;62630;55.874;37.516;2022-08-19T00:21:54;9.50;;;4.97;;
74259;SDS011;62630;55.874;37.516;2022-08-19T00:24:21;12.15;;;5.22;;
74259;SDS011;62630;55.874;37.516;2022-08-19T00:26:47;9.45;;;5.30;;
74259;SDS011;62630;55.874;37.516;2022-08-19T00:29:14;10.63;;;5.03;;
74259;SDS011;62630;55.874;37.516;2022-08-19T00:31:41;9.27;;;4.80;;
74259;SDS011;62630;55.874;37.516;2022-08-19T00:36:33;13.05;;;5.97;;
74259;SDS011;62630;55.874;37.516;2022-08-19T00:38:58;12.30;;;5.53;;
74259;SDS011;62630;55.874;37.516;2022-08-19T00:41:24;8.27;;;5.22;;
74259;SDS011;62630;55.874;37.516;2022-08-19T00:43:57;10.07;;;5.28;;
74259;SDS011;62630;55.874;37.516;2022-08-19T00:46:24;18.13;;;5.53;;
74259;SDS011;62630;55.874;37.516;2022-08-19T00:48:50;21.48;;;6.20;;
74259;SDS011;62630;55.874;37.516;2022-08-19T00:51:16;16.55;;;6.18;;
74259;SDS011;62630;55.874;37.516;2022-08-19T00:53:41;11.40;;;5.68;;
74259;SDS011;62630;55.874;37.516;2022-08-19T00:58:34;13.90;;;5.78;;
74259;SDS011;62630;55.874;37.516;2022-08-19T01:03:27;12.90;;;6.40;;
74259;SDS011;62630;55.874;37.516;2022-08-19T01:05:53;11.82;;;6.13;;
74259;SDS011;62630;55.874;37.516;2022-08-19T01:08:20;16.13;;;6.45;;
74259;SDS011;62630;55.874;37.516;2022-08-19T01:10:47;16.48;;;6.30;;
74259;SDS011;62630;55.874;37.516;2022-08-19T01:13:16;9.18;;;5.55;;
74259;SDS011;62630;55.874;37.516;2022-08-19T01:15:48;12.95;;;5.40;;
74259;SDS011;62630;55.874;37.516;2022-08-19T01:18:19;11.15;;;6.10;;
74259;SDS011;62630;55.874;37.516;2022-08-19T01:20:45;13.45;;;5.68;;
74259;SDS011;62630;55.874;37.516;2022-08-19T01:23:11;12.57;;;6.30;;
74259;SDS011;62630;55.874;37.516;2022-08-19T01:25:50;12.25;;;6.18;;
74259;SDS011;62630;55.874;37.516;2022-08-19T01:28:18;10.45;;;5.82;;
74259;SDS011;62630;55.874;37.516;2022-08-19T01:30:46;17.25;;;6.32;;
74259;SDS011;62630;55.874;37.516;2022-08-19T01:33:12;15.15;;;6.20;;
74259;SDS011;62630;55.874;37.516;2022-08-19T01:35:39;10.23;;;6.43;;
74259;SDS011;62630;55.874;37.516;2022-08-19T01:38:06;14.07;;;5.60;;
74259;SDS011;62630;55.874;37.516;2022-08-19T01:40:37;13.75;;;6.40;;
74259;SDS011;62630;55.874;37.516;2022-08-19T01:43:05;9.60;;;5.22;;
74259;SDS011;62630;55.874;37.516;2022-08-19T01:45:32;9.02;;;6.20;;
74259;SDS011;62630;55.874;37.516;2022-08-19T01:47:59;19.10;;;5.97;;
74259;SDS011;62630;55.874;37.516;2022-08-19T01:50:25;10.20;;;5.97;;
74259;SDS011;62630;55.874;37.516;2022-08-19T01:52:51;11.80;;;5.60;;
74259;SDS011;62630;55.874;37.516;2022-08-19T01:55:18;13.95;;;5.85;;
74259;SDS011;62630;55.874;37.516;2022-08-19T01:57:46;10.13;;;6.05;;
74259;SDS011;62630;55.874;37.516;2022-08-19T02:00:16;9.57;;;5.72;;
74259;SDS011;62630;55.874;37.516;2022-08-19T02:02:43;11.68;;;6.38;;
74259;SDS011;62630;55.874;37.516;2022-08-19T02:05:09;11.63;;;5.90;;
74259;SDS011;62630;55.874;37.516;2022-08-19T02:07:35;13.23;;;6.18;;
74259;SDS011;62630;55.874;37.516;2022-08-19T02:10:12;12.48;;;5.38;;
74259;SDS011;62630;55.874;37.516;2022-08-19T02:12:40;15.25;;;5.47;;
74259;SDS011;62630;55.874;37.516;2022-08-19T02:15:06;10.82;;;6.25;;
74259;SDS011;62630;55.874;37.516;2022-08-19T02:17:32;12.63;;;5.93;;
74259;SDS011;62630;55.874;37.516;2022-08-19T02:19:58;11.75;;;5.65;;
74259;SDS011;62630;55.874;37.516;2022-08-19T02:22:24;14.02;;;6.45;;
74259;SDS011;62630;55.874;37.516;2022-08-19T02:24:53;10.35;;;5.13;;
74259;SDS011;62630;55.874;37.516;2022-08-19T02:27:19;8.40;;;5.35;;
74259;SDS011;62630;55.874;37.516;2022-08-19T02:29:46;10.25;;;5.38;;
74259;SDS011;62630;55.874;37.516;2022-08-19T02:32:12;10.70;;;4.85;;
74259;SDS011;62630;55.874;37.516;2022-08-19T02:34:38;9.32;;;5.05;;
74259;SDS011;62630;55.874;37.516;2022-08-19T02:37:04;15.23;;;5.60;;
74259;SDS011;62630;55.874;37.516;2022-08-19T02:39:29;9.35;;;4.90;;
74259;SDS011;62630;55.874;37.516;2022-08-19T02:41:54;13.38;;;5.35;;
74259;SDS011;62630;55.874;37.516;2022-08-19T02:44:20;14.65;;;5.60;;
74259;SDS011;62630;55.874;37.516;2022-08-19T02:46:46;10.35;;;5.40;;
74259;SDS011;62630;55.874;37.516;2022-08-19T02:49:13;8.02;;;4.68;;
74259;SDS011;62630;55.874;37.516;2022-08-19T02:51:42;8.48;;;5.15;;
74259;SDS011;62630;55.874;37.516;2022-08-19T02:54:09;12.40;;;4.82;;
74259;SDS011;62630;55.874;37.516;2022-08-19T02:56:36;9.68;;;5.00;;
74259;SDS011;62630;55.874;37.516;2022-08-19T02:59:03;10.68;;;4.78;;
74259;SDS011;62630;55.874;37.516;2022-08-19T03:01:33;13.07;;;5.13;;
74259;SDS011;62630;55.874;37.516;2022-08-19T03:04:00;8.73;;;4.50;;
74259;SDS011;62630;55.874;37.516;2022-08-19T03:06:28;11.10;;;4.78;;
74259;SDS011;62630;55.874;37.516;2022-08-19T03:08:54;11.45;;;5.13;;
74259;SDS011;62630;55.874;37.516;2022-08-19T03:11:24;11.07;;;5.32;;
74259;SDS011;62630;55.874;37.516;2022-08-19T03:13:52;12.82;;;5.50;;
74259;SDS011;62630;55.874;37.516;2022-08-19T03:16:18;13.35;;;5.88;;
74259;SDS011;62630;55.874;37.516;2022-08-19T03:18:45;20.83;;;5.68;;
74259;SDS011;62630;55.874;37.516;2022-08-19T03:21:17;13.57;;;5.50;;
74259;SDS011;62630;55.874;37.516;2022-08-19T03:23:44;10.32;;;4.68;;
74259;SDS011;62630;55.874;37.516;2022-08-19T03:26:10;10.75;;;4.72;;
74259;SDS011;62630;55.874;37.516;2022-08-19T03:28:36;11.07;;;5.72;;
74259;SDS011;62630;55.874;37.516;2022-08-19T03:31:10;8.88;;;5.32;;
74259;SDS011;62630;55.874;37.516;2022-08-19T03:33:38;14.63;;;5.45;;
74259;SDS011;62630;55.874;37.516;2022-08-19T03:38:34;12.15;;;4.95;;
74259;SDS011;62630;55.874;37.516;2022-08-19T03:41:03;12.77;;;5.10;;
74259;SDS011;62630;55.874;37.516;2022-08-19T03:43:36;9.95;;;5.00;;
74259;SDS011;62630;55.874;37.516;2022-08-19T03:46:05;7.85;;;4.88;;
74259;SDS011;62630;55.874;37.516;2022-08-19T03:48:36;15.52;;;5.57;;
74259;SDS011;62630;55.874;37.516;2022-08-19T03:51:04;9.32;;;4.97;;
74259;SDS011;62630;55.874;37.516;2022-08-19T03:53:30;11.98;;;5.13;;
74259;SDS011;62630;55.874;37.516;2022-08-19T03:55:58;13.48;;;5.25;;
74259;SDS011;62630;55.874;37.516;2022-08-19T03:58:28;11.02;;;4.65;;
74259;SDS011;62630;55.874;37.516;2022-08-19T04:00:57;11.70;;;3.92;;
74259;SDS011;62630;55.874;37.516;2022-08-19T04:03:23;11.52;;;4.45;;
74259;SDS011;62630;55.874;37.516;2022-08-19T04:05:50;11.52;;;5.05;;
74259;SDS011;62630;55.874;37.516;2022-08-19T04:08:15;13.35;;;4.18;;
74259;SDS011;62630;55.874;37.516;2022-08-19T04:10:43;10.48;;;4.72;;
74259;SDS011;62630;55.874;37.516;2022-08-19T04:13:09;10.52;;;3.78;;
74259;SDS011;62630;55.874;37.516;2022-08-19T04:15:38;8.73;;;4.10;;
74259;SDS011;62630;55.874;37.516;2022-08-19T04:18:06;15.68;;;4.22;;
74259;SDS011;62630;55.874;37.516;2022-08-19T04:20:39;7.80;;;3.88;;
74259;SDS011;62630;55.874;37.516;2022-08-19T04:23:05;11.32;;;3.67;;
74259;SDS011;62630;55.874;37.516;2022-08-19T04:25:35;8.55;;;3.63;;
74259;SDS011;62630;55.874;37.516;2022-08-19T04:28:04;8.57;;;3.58;;
74259;SDS011;62630;55.874;37.516;2022-08-19T04:30:30;9.85;;;3.85;;
74259;SDS011;62630;55.874;37.516;2022-08-19T04:33:02;13.23;;;3.20;;
74259;SDS011;62630;55.874;37.516;2022-08-19T04:35:27;9.35;;;3.28;;
74259;SDS011;62630;55.874;37.516;2022-08-19T04:37:53;8.98;;;3.40;;
74259;SDS011;62630;55.874;37.516;2022-08-19T04:40:18;7.43;;;3.42;;
74259;SDS011;62630;55.874;37.516;2022-08-19T04:43:16;6.70;;;3.20;;
74259;SDS011;62630;55.874;37.516;2022-08-19T04:45:42;10.07;;;3.40;;
74259;SDS011;62630;55.874;37.516;2022-08-19T04:50:35;8.88;;;3.25;;
74259;SDS011;62630;55.874;37.516;2022-08-19T04:53:00;5.90;;;3.20;;
74259;SDS011;62630;55.874;37.516;2022-08-19T04:55:26;6.93;;;3.10;;
74259;SDS011;62630;55.874;37.516;2022-08-19T04:57:52;8.85;;;3.20;;
74259;SDS011;62630;55.874;37.516;2022-08-19T05:00:18;7.60;;;3.60;;
74259;SDS011;62630;55.874;37.516;2022-08-19T05:02:44;11.23;;;3.28;;
74259;SDS011;62630;55.874;37.516;2022-08-19T05:05:14;7.40;;;3.58;;
74259;SDS011;62630;55.874;37.516;2022-08-19T05:07:40;14.45;;;3.40;;
74259;SDS011;62630;55.874;37.516;2022-08-19T05:10:06;7.38;;;3.28;;
74259;SDS011;62630;55.874;37.516;2022-08-19T05:12:32;12.32;;;3.67;;
74259;SDS011;62630;55.874;37.516;2022-08-19T05:14:58;10.57;;;3.38;;
74259;SDS011;62630;55.874;37.516;2022-08-19T05:17:27;9.38;;;3.50;;
74259;SDS011;62630;55.874;37.516;2022-08-19T05:19:53;9.65;;;3.60;;
74259;SDS011;62630;55.874;37.516;2022-08-19T05:22:38;8.57;;;3.42;;
74259;SDS011;62630;55.874;37.516;2022-08-19T05:25:07;9.07;;;3.75;;
74259;SDS011;62630;55.874;37.516;2022-08-19T05:27:34;10.63;;;3.85;;
74259;SDS011;62630;55.874;37.516;2022-08-19T05:30:00;10.23;;;3.33;;
74259;SDS011;62630;55.874;37.516;2022-08-19T05:32:26;9.95;;;3.83;;
74259;SDS011;62630;55.874;37.516;2022-08-19T05:34:52;5.78;;;3.40;;
74259;SDS011;62630;55.874;37.516;2022-08-19T05:37:18;6.68;;;3.50;;
74259;SDS011;62630;55.874;37.516;2022-08-19T05:39:44;9.45;;;3.83;;
74259;SDS011;62630;55.874;37.516;2022-08-19T05:42:11;5.03;;;3.20;;
74259;SDS011;62630;55.874;37.516;2022-08-19T05:44:38;5.57;;;3.10;;
74259;SDS011;62630;55.874;37.516;2022-08-19T05:47:14;11.05;;;3.60;;
74259;SDS011;62630;55.874;37.516;2022-08-19T05:49:41;11.25;;;3.85;;
74259;SDS011;62630;55.874;37.516;2022-08-19T05:52:11;15.13;;;4.07;;
74259;SDS011;62630;55.874;37.516;2022-08-19T05:54:40;8.27;;;3.65;;
74259;SDS011;62630;55.874;37.516;2022-08-19T05:57:08;10.27;;;3.83;;
74259;SDS011;62630;55.874;37.516;2022-08-19T05:59:34;13.73;;;3.83;;
74259;SDS011;62630;55.874;37.516;2022-08-19T06:02:00;10.07;;;3.92;;
74259;SDS011;62630;55.874;37.516;2022-08-19T06:04:27;6.85;;;3.55;;
74259;SDS011;62630;55.874;37.516;2022-08-19T06:06:54;10.60;;;3.33;;
74259;SDS011;62630;55.874;37.516;2022-08-19T06:09:20;7.30;;;3.53;;
74259;SDS011;62630;55.874;37.516;2022-08-19T06:11:55;5.82;;;3.03;;
74259;SDS011;62630;55.874;37.516;2022-08-19T06:14:26;5.15;;;3.55;;
74259;SDS011;62630;55.874;37.516;2022-08-19T06:16:54;10.20;;;3.58;;
74259;SDS011;62630;55.874;37.516;2022-08-19T06:19:20;14.18;;;3.67;;
74259;SDS011;62630;55.874;37.516;2022-08-19T06:21:50;12.35;;;3.80;;
74259;SDS011;62630;55.874;37.516;2022-08-19T06:24:20;10.90;;;4.53;;
74259;SDS011;62630;55.874;37.516;2022-08-19T06:26:49;11.45;;;4.10;;
74259;SDS011;62630;55.874;37.516;2022-08-19T06:29:18;16.25;;;4.30;;
74259;SDS011;62630;55.874;37.516;2022-08-19T06:31:47;13.82;;;4.60;;
74259;SDS011;62630;55.874;37.516;2022-08-19T06:34:15;11.98;;;3.80;;
74259;SDS011;62630;55.874;37.516;2022-08-19T06:36:44;15.05;;;4.00;;
74259;SDS011;62630;55.874;37.516;2022-08-19T06:39:13;11.43;;;4.00;;
74259;SDS011;62630;55.874;37.516;2022-08-19T06:41:44;14.15;;;5.10;;
74259;SDS011;62630;55.874;37.516;2022-08-19T06:44:12;11.70;;;4.03;;
74259;SDS011;62630;55.874;37.516;2022-08-19T06:46:38;14.60;;;4.57;;
74259;SDS011;62630;55.874;37.516;2022-08-19T06:49:04;13.43;;;4.20;;
74259;SDS011;62630;55.874;37.516;2022-08-19T06:51:31;12.05;;;4.07;;
74259;SDS011;62630;55.874;37.516;2022-08-19T06:53:58;13.10;;;4.25;;
74259;SDS011;62630;55.874;37.516;2022-08-19T06:56:26;7.70;;;3.78;;
74259;SDS011;62630;55.874;37.516;2022-08-19T06:59:21;7.65;;;3.58;;
74259;SDS011;62630;55.874;37.516;2022-08-19T07:01:51;9.43;;;4.32;;
74259;SDS011;62630;55.874;37.516;2022-08-19T07:04:19;10.98;;;4.07;;
74259;SDS011;62630;55.874;37.516;2022-08-19T07:06:47;10.30;;;4.07;;
74259;SDS011;62630;55.874;37.516;2022-08-19T07:09:14;8.65;;;4.00;;
74259;SDS011;62630;55.874;37.516;2022-08-19T07:11:46;11.93;;;4.13;;
74259;SDS011;62630;55.874;37.516;2022-08-19T07:14:20;13.98;;;4.43;;
74259;SDS011;62630;55.874;37.516;2022-08-19T07:16:49;15.68;;;4.82;;
74259;SDS011;62630;55.874;37.516;2022-08-19T07:19:17;16.58;;;4.03;;
74259;SDS011;62630;55.874;37.516;2022-08-19T07:21:44;9.15;;;3.78;;
74259;SDS011;62630;55.874;37.516;2022-08-19T07:24:14;13.07;;;4.53;;
74259;SDS011;62630;55.874;37.516;2022-08-19T07:26:42;11.75;;;4.43;;
74259;SDS011;62630;55.874;37.516;2022-08-19T07:29:08;12.73;;;4.15;;
74259;SDS011;62630;55.874;37.516;2022-08-19T07:31:35;17.25;;;4.10;;
74259;SDS011;62630;55.874;37.516;2022-08-19T07:34:03;8.27;;;3.38;;
74259;SDS011;62630;55.874;37.516;2022-08-19T07:36:33;6.50;;;3.47;;
74259;SDS011;62630;55.874;37.516;2022-08-19T07:39:03;13.80;;;3.35;;
74259;SDS011;62630;55.874;37.516;2022-08-19T07:41:32;8.02;;;3.28;;
74259;SDS011;62630;55.874;37.516;2022-08-19T07:44:00;22.48;;;4.32;;
74259;SDS011;62630;55.874;37.516;2022-08-19T07:46:30;9.10;;;3.50;;
74259;SDS011;62630;55.874;37.516;2022-08-19T07:48:56;8.75;;;3.30;;
74259;SDS011;62630;55.874;37.516;2022-08-19T07:51:23;7.10;;;2.92;;
74259;SDS011;62630;55.874;37.516;2022-08-19T07:53:49;7.68;;;3.30;;
74259;SDS011;62630;55.874;37.516;2022-08-19T07:56:18;10.30;;;4.57;;
74259;SDS011;62630;55.874;37.516;2022-08-19T07:58:46;11.77;;;3.70;;
74259;SDS011;62630;55.874;37.516;2022-08-19T08:01:17;8.63;;;2.78;;
74259;SDS011;62630;55.874;37.516;2022-08-19T08:03:45;13.90;;;4.60;;
74259;SDS011;62630;55.874;37.516;2022-08-19T08:06:30;7.95;;;3.60;;
74259;SDS011;62630;55.874;37.516;2022-08-19T08:09:15;14.30;;;5.47;;
74259;SDS011;62630;55.874;37.516;2022-08-19T08:11:57;10.93;;;3.75;;
74259;SDS011;62630;55.874;37.516;2022-08-19T08:14:33;8.13;;;3.08;;
74259;SDS011;62630;55.874;37.516;2022-08-19T08:17:02;9.82;;;3.72;;
74259;SDS011;62630;55.874;37.516;2022-08-19T08:19:29;9.15;;;3.30;;
74259;SDS011;62630;55.874;37.516;2022-08-19T08:21:56;8.38;;;3.42;;
74259;SDS011;62630;55.874;37.516;2022-08-19T08:24:23;16.50;;;4.05;;
74259;SDS011;62630;55.874;37.516;2022-08-19T08:26:50;8.10;;;3.45;;
74259;SDS011;62630;55.874;37.516;2022-08-19T08:29:16;7.90;;;3.67;;
74259;SDS011;62630;55.874;37.516;2022-08-19T08:31:42;14.98;;;3.72;;
74259;SDS011;62630;55.874;37.516;2022-08-19T08:34:10;5.22;;;2.63;;
74259;SDS011;62630;55.874;37.516;2022-08-19T08:36:40;7.85;;;3.50;;
74259;SDS011;62630;55.874;37.516;2022-08-19T08:41:41;10.07;;;3.17;;
74259;SDS011;62630;55.874;37.516;2022-08-19T08:44:20;12.70;;;3.38;;
74259;SDS011;62630;55.874;37.516;2022-08-19T08:46:57;8.18;;;3.60;;
74259;SDS011;62630;55.874;37.516;2022-08-19T08:49:29;10.52;;;3.60;;
74259;SDS011;62630;55.874;37.516;2022-08-19T08:52:10;10.80;;;4.07;;
74259;SDS011;62630;55.874;37.516;2022-08-19T08:54:41;6.72;;;3.20;;
74259;SDS011;62630;55.874;37.516;2022-08-19T08:57:18;10.27;;;3.33;;
74259;SDS011;62630;55.874;37.516;2022-08-19T08:59:54;7.25;;;3.10;;
74259;SDS011;62630;55.874;37.516;2022-08-19T09:02:22;5.88;;;3.95;;
74259;SDS011;62630;55.874;37.516;2022-08-19T09:04:48;10.82;;;3.60;;
74259;SDS011;62630;55.874;37.516;2022-08-19T09:09:52;14.45;;;4.80;;
74259;SDS011;62630;55.874;37.516;2022-08-19T09:15:31;8.02;;;3.40;;
74259;SDS011;62630;55.874;37.516;2022-08-19T09:18:04;11.80;;;3.63;;
74259;SDS011;62630;55.874;37.516;2022-08-19T09:20:31;9.00;;;3.60;;
74259;SDS011;62630;55.874;37.516;2022-08-19T09:22:57;11.30;;;3.65;;
74259;SDS011;62630;55.874;37.516;2022-08-19T09:25:23;13.43;;;3.97;;
74259;SDS011;62630;55.874;37.516;2022-08-19T09:27:50;8.07;;;3.97;;
74259;SDS011;62630;55.874;37.516;2022-08-19T09:30:26;9.93;;;4.13;;
74259;SDS011;62630;55.874;37.516;2022-08-19T09:32:54;11.25;;;3.38;;
74259;SDS011;62630;55.874;37.516;2022-08-19T09:35:21;10.05;;;4.28;;
74259;SDS011;62630;55.874;37.516;2022-08-19T09:37:48;13.63;;;3.70;;
74259;SDS011;62630;55.874;37.516;2022-08-19T09:40:17;11.20;;;4.13;;
74259;SDS011;62630;55.874;37.516;2022-08-19T09:42:44;11.80;;;3.70;;
74259;SDS011;62630;55.874;37.516;2022-08-19T09:45:13;11.85;;;4.15;;
74259;SDS011;62630;55.874;37.516;2022-08-19T09:47:40;12.05;;;3.92;;
74259;SDS011;62630;55.874;37.516;2022-08-19T09:50:07;8.88;;;3.90;;
74259;SDS011;62630;55.874;37.516;2022-08-19T09:52:34;8.43;;;3.83;;
74259;SDS011;62630;55.874;37.516;2022-08-19T09:55:06;13.88;;;4.22;;
74259;SDS011;62630;55.874;37.516;2022-08-19T09:57:33;8.65;;;3.67;;
74259;SDS011;62630;55.874;37.516;2022-08-19T10:00:04;7.68;;;4.28;;
74259;SDS011;62630;55.874;37.516;2022-08-19T10:02:33;12.00;;;4.05;;
74259;SDS011;62630;55.874;37.516;2022-08-19T10:04:59;9.65;;;4.00;;
74259;SDS011;62630;55.874;37.516;2022-08-19T10:07:43;9.45;;;3.30;;
74259;SDS011;62630;55.874;37.516;2022-08-19T10:10:09;11.23;;;3.78;;
74259;SDS011;62630;55.874;37.516;2022-08-19T10:12:35;9.73;;;3.80;;
74259;SDS011;62630;55.874;37.516;2022-08-19T10:15:01;7.82;;;3.40;;
74259;SDS011;62630;55.874;37.516;2022-08-19T10:17:28;5.82;;;3.28;;
74259;SDS011;62630;55.874;37.516;2022-08-19T10:19:53;12.02;;;4.07;;
74259;SDS011;62630;55.874;37.516;2022-08-19T10:22:19;12.68;;;4.20;;
74259;SDS011;62630;55.874;37.516;2022-08-19T10:24:48;11.52;;;4.22;;
74259;SDS011;62630;55.874;37.516;2022-08-19T10:27:14;8.50;;;4.10;;
74259;SDS011;62630;55.874;37.516;2022-08-19T10:29:40;7.53;;;4.03;;
74259;SDS011;62630;55.874;37.516;2022-08-19T10:32:06;7.85;;;4.85;;
74259;SDS011;62630;55.874;37.516;2022-08-19T10:34:34;7.47;;;4.20;;
74259;SDS011;62630;55.874;37.516;2022-08-19T10:37:00;10.77;;;5.05;;
74259;SDS011;62630;55.874;37.516;2022-08-19T10:39:27;5.93;;;3.92;;
74259;SDS011;62630;55.874;37.516;2022-08-19T10:41:55;7.80;;;4.18;;
74259;SDS011;62630;55.874;37.516;2022-08-19T10:44:21;8.40;;;4.15;;
74259;SDS011;62630;55.874;37.516;2022-08-19T10:46:49;9.27;;;4.30;;
74259;SDS011;62630;55.874;37.516;2022-08-19T10:49:15;9.00;;;4.25;;
74259;SDS011;62630;55.874;37.516;2022-08-19T10:51:41;14.70;;;4.43;;
74259;SDS011;62630;55.874;37.516;2022-08-19T10:54:26;7.78;;;4.03;;
74259;SDS011;62630;55.874;37.516;2022-08-19T10:57:12;14.80;;;4.10;;
74259;SDS011;62630;55.874;37.516;2022-08-19T10:59:39;13.57;;;3.90;;
74259;SDS011;62630;55.874;37.516;2022-08-19T11:02:08;14.57;;;4.25;;
74259;SDS011;62630;55.874;37.516;2022-08-19T11:04:36;6.15;;;3.05;;
74259;SDS011;62630;55.874;37.516;2022-08-19T11:07:03;10.00;;;3.70;;
74259;SDS011;62630;55.874;37.516;2022-08-19T11:09:30;8.52;;;3.40;;
74259;SDS011;62630;55.874;37.516;2022-08-19T11:11:56;7.95;;;4.03;;
74259;SDS011;62630;55.874;37.516;2022-08-19T11:14:22;11.55;;;4.03;;
74259;SDS011;62630;55.874;37.516;2022-08-19T11:16:49;10.10;;;3.40;;
74259;SDS011;62630;55.874;37.516;2022-08-19T11:19:16;13.60;;;3.67;;
74259;SDS011;62630;55.874;37.516;2022-08-19T11:21:45;8.18;;;3.72;;
74259;SDS011;62630;55.874;37.516;2022-08-19T11:24:13;19.73;;;3.63;;
74259;SDS011;62630;55.874;37.516;2022-08-19T11:26:42;7.10;;;2.70;;
74259;SDS011;62630;55.874;37.516;2022-08-19T11:29:09;5.97;;;2.83;;
74259;SDS011;62630;55.874;37.516;2022-08-19T11:31:36;22.35;;;3.28;;
74259;SDS011;62630;55.874;37.516;2022-08-19T11:34:05;10.30;;;3.20;;
74259;SDS011;62630;55.874;37.516;2022-08-19T11:36:32;13.15;;;3.63;;
74259;SDS011;62630;55.874;37.516;2022-08-19T11:38:59;15.82;;;3.20;;
74259;SDS011;62630;55.874;37.516;2022-08-19T11:41:25;8.93;;;3.08;;
74259;SDS011;62630;55.874;37.516;2022-08-19T11:43:51;9.93;;;3.38;;
74259;SDS011;62630;55.874;37.516;2022-08-19T11:46:20;6.63;;;3.20;;
74259;SDS011;62630;55.874;37.516;2022-08-19T11:48:47;11.90;;;3.80;;
74259;SDS011;62630;55.874;37.516;2022-08-19T11:51:16;6.03;;;3.50;;
74259;SDS011;62630;55.874;37.516;2022-08-19T11:53:44;14.63;;;3.70;;
74259;SDS011;62630;55.874;37.516;2022-08-19T11:56:11;11.13;;;2.97;;
74259;SDS011;62630;55.874;37.516;2022-08-19T11:58:37;10.80;;;3.30;;
74259;SDS011;62630;55.874;37.516;2022-08-19T12:01:07;6.88;;;2.40;;
74259;SDS011;62630;55.874;37.516;2022-08-19T12:03:36;8.57;;;3.47;;
74259;SDS011;62630;55.874;37.516;2022-08-19T12:08:29;11.00;;;3.05;;
74259;SDS011;62630;55.874;37.516;2022-08-19T12:10:55;5.93;;;2.75;;
74259;SDS011;62630;55.874;37.516;2022-08-19T12:13:21;13.75;;;2.95;;
74259;SDS011;62630;55.874;37.516;2022-08-19T12:15:49;13.82;;;3.08;;
74259;SDS011;62630;55.874;37.516;2022-08-19T12:18:18;6.13;;;2.60;;
74259;SDS011;62630;55.874;37.516;2022-08-19T12:20:43;6.68;;;2.88;;
74259;SDS011;62630;55.874;37.516;2022-08-19T12:23:11;5.93;;;2.85;;
74259;SDS011;62630;55.874;37.516;2022-08-19T12:25:37;8.48;;;2.47;;
74259;SDS011;62630;55.874;37.516;2022-08-19T12:28:13;12.13;;;3.20;;
74259;SDS011;62630;55.874;37.516;2022-08-19T12:30:42;12.18;;;2.92;;
74259;SDS011;62630;55.874;37.516;2022-08-19T12:33:14;5.45;;;2.15;;
74259;SDS011;62630;55.874;37.516;2022-08-19T12:35:46;5.82;;;2.47;;
74259;SDS011;62630;55.874;37.516;2022-08-19T12:38:31;5.75;;;2.38;;
74259;SDS011;62630;55.874;37.516;2022-08-19T12:41:07;8.93;;;2.60;;
74259;SDS011;62630;55.874;37.516;2022-08-19T12:43:45;5.45;;;2.00;;
74259;SDS011;62630;55.874;37.516;2022-08-19T12:46:13;8.90;;;2.90;;
74259;SDS011;62630;55.874;37.516;2022-08-19T12:48:45;10.13;;;2.45;;
74259;SDS011;62630;55.874;37.516;2022-08-19T12:51:15;9.18;;;2.92;;
74259;SDS011;62630;55.874;37.516;2022-08-19T12:53:44;4.20;;;2.35;;
74259;SDS011;62630;55.874;37.516;2022-08-19T12:56:14;8.75;;;2.75;;
74259;SDS011;62630;55.874;37.516;2022-08-19T12:58:49;9.73;;;2.83;;
74259;SDS011;62630;55.874;37.516;2022-08-19T13:01:35;8.30;;;2.97;;
74259;SDS011;62630;55.874;37.516;2022-08-19T13:04:01;7.53;;;3.10;;
74259;SDS011;62630;55.874;37.516;2022-08-19T13:06:27;10.75;;;3.13;;
74259;SDS011;62630;55.874;37.516;2022-08-19T13:11:59;11.45;;;3.15;;
74259;SDS011;62630;55.874;37.516;2022-08-19T13:14:28;12.98;;;3.17;;
74259;SDS011;62630;55.874;37.516;2022-08-19T13:16:58;10.00;;;3.42;;
74259;SDS011;62630;55.874;37.516;2022-08-19T13:19:28;11.40;;;3.78;;
74259;SDS011;62630;55.874;37.516;2022-08-19T13:21:59;10.32;;;3.45;;
74259;SDS011;62630;55.874;37.516;2022-08-19T13:24:27;14.02;;;3.63;;
74259;SDS011;62630;55.874;37.516;2022-08-19T13:26:55;5.55;;;2.75;;
74259;SDS011;62630;55.874;37.516;2022-08-19T13:29:30;8.25;;;3.00;;
74259;SDS011;62630;55.874;37.516;2022-08-19T13:32:17;9.80;;;2.70;;
74259;SDS011;62630;55.874;37.516;2022-08-19T13:35:08;5.38;;;2.80;;
74259;SDS011;62630;55.874;37.516;2022-08-19T13:37:34;9.75;;;3.28;;
74259;SDS011;62630;55.874;37.516;2022-08-19T13:40:21;7.85;;;2.50;;
74259;SDS011;62630;55.874;37.516;2022-08-19T13:42:59;4.45;;;2.60;;
74259;SDS011;62630;55.874;37.516;2022-08-19T13:45:28;8.50;;;3.22;;
74259;SDS011;62630;55.874;37.516;2022-08-19T13:48:05;7.10;;;3.17;;
74259;SDS011;62630;55.874;37.516;2022-08-19T13:50:44;9.52;;;3.40;;
74259;SDS011;62630;55.874;37.516;2022-08-19T13:53:13;7.03;;;2.83;;
74259;SDS011;62630;55.874;37.516;2022-08-19T13:55:55;12.75;;;3.20;;
74259;SDS011;62630;55.874;37.516;2022-08-19T13:58:20;7.93;;;3.33;;
74259;SDS011;62630;55.874;37.516;2022-08-19T14:00:47;8.98;;;3.03;;
74259;SDS011;62630;55.874;37.516;2022-08-19T14:03:22;8.40;;;3.35;;
74259;SDS011;62630;55.874;37.516;2022-08-19T14:05:48;6.07;;;3.03;;
74259;SDS011;62630;55.874;37.516;2022-08-19T14:08:14;11.60;;;3.38;;
74259;SDS011;62630;55.874;37.516;2022-08-19T14:10:39;7.00;;;3.03;;
74259;SDS011;62630;55.874;37.516;2022-08-19T14:13:19;17.45;;;3.67;;
74259;SDS011;62630;55.874;37.516;2022-08-19T14:15:49;9.95;;;3.83;;
74259;SDS011;62630;55.874;37.516;2022-08-19T14:18:15;8.98;;;3.28;;
74259;SDS011;62630;55.874;37.516;2022-08-19T14:20:45;13.73;;;3.30;;
74259;SDS011;62630;55.874;37.516;2022-08-19T14:23:11;6.25;;;3.05;;
74259;SDS011;62630;55.874;37.516;2022-08-19T14:25:37;9.88;;;3.78;;
74259;SDS011;62630;55.874;37.516;2022-08-19T14:28:03;5.47;;;2.50;;
74259;SDS011;62630;55.874;37.516;2022-08-19T14:30:32;5.63;;;3.13;;
74259;SDS011;62630;55.874;37.516;2022-08-19T14:33:00;10.57;;;2.92;;
74259;SDS011;62630;55.874;37.516;2022-08-19T14:35:33;8.63;;;2.78;;
74259;SDS011;62630;55.874;37.516;2022-08-19T14:38:00;8.57;;;3.05;;
74259;SDS011;62630;55.874;37.516;2022-08-19T14:40:30;7.60;;;2.60;;
74259;SDS011;62630;55.874;37.516;2022-08-19T14:43:00;7.63;;;3.40;;
74259;SDS011;62630;55.874;37.516;2022-08-19T14:45:56;5.65;;;2.67;;
74259;SDS011;62630;55.874;37.516;2022-08-19T14:48:22;6.75;;;2.75;;
74259;SDS011;62630;55.874;37.516;2022-08-19T14:50:47;6.40;;;3.35;;
74259;SDS011;62630;55.874;37.516;2022-08-19T14:53:13;7.25;;;2.97;;
74259;SDS011;62630;55.874;37.516;2022-08-19T14:55:42;6.65;;;2.60;;
74259;SDS011;62630;55.874;37.516;2022-08-19T14:58:09;12.35;;;2.97;;
74259;SDS011;62630;55.874;37.516;2022-08-19T15:00:34;7.00;;;3.15;;
74259;SDS011;62630;55.874;37.516;2022-08-19T15:03:01;6.85;;;3.00;;
74259;SDS011;62630;55.874;37.516;2022-08-19T15:05:26;12.43;;;3.42;;